sensor_id;sensor_type;location;lat;lon;timestamp;P1;P2;P0
50321;PMS5003;36227;53.366;-1.426;2023-05-17T00:00:17;10;9;
50321;PMS5003;36227;53.366;-1.426;2023-05-17T00:02:42;9;7;
50321;PMS5003;36227;53.366;-1.426;2023-05-17T00:05:08;9;9;
50321;PMS5003;36227;53.366;-1.426;2023-05-17T00:07:33;9;9;
50321;PMS5003;36227;53.366;-1.426;2023-05-17T00:09:58;8;8;
50321;PMS5003;36227;53.366;-1.426;2023-05-17T00:12:23;9;9;
50321;PMS5003;36227;53.366;-1.426;2023-05-17T00:14:49;11;11;
50321;PMS5003;36227;53.366;-1.426;2023-05-17T00:17:14;10;10;
50321;PMS5003;36227;53.366;-1.426;2023-05-17T00:19:40;6;6;
50321;PMS5003;36227;53.366;-1.426;2023-05-17T00:22:05;12;9;
50321;PMS5003;36227;53.366;-1.426;2023-05-17T00:24:30;11;11;
50321;PMS5003;36227;53.366;-1.426;2023-05-17T00:26:56;9;7;
50321;PMS5003;36227;53.366;-1.426;2023-05-17T00:29:21;11;11;
50321;PMS5003;36227;53.366;-1.426;2023-05-17T00:31:47;12;10;
50321;PMS5003;36227;53.366;-1.426;2023-05-17T00:34:12;9;8;
50321;PMS5003;36227;53.366;-1.426;2023-05-17T00:36:37;11;9;
50321;PMS5003;36227;53.366;-1.426;2023-05-17T00:39:02;11;10;
50321;PMS5003;36227;53.366;-1.426;2023-05-17T00:41:28;9;9;
50321;PMS5003;36227;53.366;-1.426;2023-05-17T00:43:53;7;7;
50321;PMS5003;36227;53.366;-1.426;2023-05-17T00:46:19;13;11;
50321;PMS5003;36227;53.366;-1.426;2023-05-17T00:48:44;10;7;
50321;PMS5003;36227;53.366;-1.426;2023-05-17T00:51:10;8;7;
50321;PMS5003;36227;53.366;-1.426;2023-05-17T00:53:36;11;9;
50321;PMS5003;36227;53.366;-1.426;2023-05-17T00:56:01;9;7;
50321;PMS5003;36227;53.366;-1.426;2023-05-17T00:58:26;11;11;
50321;PMS5003;36227;53.366;-1.426;2023-05-17T01:00:51;9;9;
50321;PMS5003;36227;53.366;-1.426;2023-05-17T01:03:16;10;10;
50321;PMS5003;36227;53.366;-1.426;2023-05-17T01:05:42;9;9;
50321;PMS5003;36227;53.366;-1.426;2023-05-17T01:08:07;10;8;
50321;PMS5003;36227;53.366;-1.426;2023-05-17T01:10:34;10;8;
50321;PMS5003;36227;53.366;-1.426;2023-05-17T01:13:00;10;8;
50321;PMS5003;36227;53.366;-1.426;2023-05-17T01:15:24;9;9;
50321;PMS5003;36227;53.366;-1.426;2023-05-17T01:17:51;11;10;
50321;PMS5003;36227;53.366;-1.426;2023-05-17T01:20:16;15;12;
50321;PMS5003;36227;53.366;-1.426;2023-05-17T01:22:42;11;10;
50321;PMS5003;36227;53.366;-1.426;2023-05-17T01:25:10;13;12;
50321;PMS5003;36227;53.366;-1.426;2023-05-17T01:27:31;14;13;
50321;PMS5003;36227;53.366;-1.426;2023-05-17T01:29:56;11;11;
50321;PMS5003;36227;53.366;-1.426;2023-05-17T01:32:22;11;11;
50321;PMS5003;36227;53.366;-1.426;2023-05-17T01:34:47;11;10;
50321;PMS5003;36227;53.366;-1.426;2023-05-17T01:37:13;12;10;
50321;PMS5003;36227;53.366;-1.426;2023-05-17T01:39:38;15;15;
50321;PMS5003;36227;53.366;-1.426;2023-05-17T01:42:06;10;10;
50321;PMS5003;36227;53.366;-1.426;2023-05-17T01:44:31;11;11;
50321;PMS5003;36227;53.366;-1.426;2023-05-17T01:46:56;11;10;
50321;PMS5003;36227;53.366;-1.426;2023-05-17T01:49:20;16;16;
50321;PMS5003;36227;53.366;-1.426;2023-05-17T01:51:46;12;12;
50321;PMS5003;36227;53.366;-1.426;2023-05-17T01:54:11;15;14;
50321;PMS5003;36227;53.366;-1.426;2023-05-17T01:56:37;15;13;
50321;PMS5003;36227;53.366;-1.426;2023-05-17T01:59:01;10;10;
50321;PMS5003;36227;53.366;-1.426;2023-05-17T02:01:27;15;13;
50321;PMS5003;36227;53.366;-1.426;2023-05-17T02:03:53;18;16;
50321;PMS5003;36227;53.366;-1.426;2023-05-17T02:06:18;14;12;
50321;PMS5003;36227;53.366;-1.426;2023-05-17T02:08:43;13;13;
50321;PMS5003;36227;53.366;-1.426;2023-05-17T02:11:09;16;14;
50321;PMS5003;36227;53.366;-1.426;2023-05-17T02:13:34;17;17;
50321;PMS5003;36227;53.366;-1.426;2023-05-17T02:16:00;18;17;
50321;PMS5003;36227;53.366;-1.426;2023-05-17T02:18:25;15;14;
50321;PMS5003;36227;53.366;-1.426;2023-05-17T02:20:50;15;15;
50321;PMS5003;36227;53.366;-1.426;2023-05-17T02:23:16;16;13;
50321;PMS5003;36227;53.366;-1.426;2023-05-17T02:25:42;17;13;
50321;PMS5003;36227;53.366;-1.426;2023-05-17T02:28:07;18;16;
50321;PMS5003;36227;53.366;-1.426;2023-05-17T02:30:32;18;16;
50321;PMS5003;36227;53.366;-1.426;2023-05-17T02:32:57;13;13;
50321;PMS5003;36227;53.366;-1.426;2023-05-17T02:35:23;16;16;
50321;PMS5003;36227;53.366;-1.426;2023-05-17T02:37:48;13;12;
50321;PMS5003;36227;53.366;-1.426;2023-05-17T02:40:14;13;13;
50321;PMS5003;36227;53.366;-1.426;2023-05-17T02:42:40;15;15;
50321;PMS5003;36227;53.366;-1.426;2023-05-17T02:45:06;10;10;
50321;PMS5003;36227;53.366;-1.426;2023-05-17T02:47:31;15;13;
50321;PMS5003;36227;53.366;-1.426;2023-05-17T02:49:56;20;19;
50321;PMS5003;36227;53.366;-1.426;2023-05-17T02:52:22;16;15;
50321;PMS5003;36227;53.366;-1.426;2023-05-17T02:54:47;14;13;
50321;PMS5003;36227;53.366;-1.426;2023-05-17T02:57:12;11;11;
50321;PMS5003;36227;53.366;-1.426;2023-05-17T02:59:38;13;11;
50321;PMS5003;36227;53.366;-1.426;2023-05-17T03:02:04;16;13;
50321;PMS5003;36227;53.366;-1.426;2023-05-17T03:04:28;14;13;
50321;PMS5003;36227;53.366;-1.426;2023-05-17T03:06:54;16;12;
50321;PMS5003;36227;53.366;-1.426;2023-05-17T03:09:20;15;13;
50321;PMS5003;36227;53.366;-1.426;2023-05-17T03:11:45;15;15;
50321;PMS5003;36227;53.366;-1.426;2023-05-17T03:14:11;12;12;
50321;PMS5003;36227;53.366;-1.426;2023-05-17T03:16:36;16;16;
50321;PMS5003;36227;53.366;-1.426;2023-05-17T03:19:02;14;13;
50321;PMS5003;36227;53.366;-1.426;2023-05-17T03:21:28;14;13;
50321;PMS5003;36227;53.366;-1.426;2023-05-17T03:23:53;12;12;
50321;PMS5003;36227;53.366;-1.426;2023-05-17T03:26:19;12;12;
50321;PMS5003;36227;53.366;-1.426;2023-05-17T03:28:45;16;15;
50321;PMS5003;36227;53.366;-1.426;2023-05-17T03:31:10;17;16;
50321;PMS5003;36227;53.366;-1.426;2023-05-17T03:33:35;14;12;
50321;PMS5003;36227;53.366;-1.426;2023-05-17T03:36:01;18;16;
50321;PMS5003;36227;53.366;-1.426;2023-05-17T03:38:27;14;14;
50321;PMS5003;36227;53.366;-1.426;2023-05-17T03:40:53;18;17;
50321;PMS5003;36227;53.366;-1.426;2023-05-17T03:43:18;16;16;
50321;PMS5003;36227;53.366;-1.426;2023-05-17T03:45:44;16;16;
50321;PMS5003;36227;53.366;-1.426;2023-05-17T03:48:09;20;17;
50321;PMS5003;36227;53.366;-1.426;2023-05-17T03:50:34;17;15;
50321;PMS5003;36227;53.366;-1.426;2023-05-17T03:53:00;16;16;
50321;PMS5003;36227;53.366;-1.426;2023-05-17T03:55:25;14;13;
50321;PMS5003;36227;53.366;-1.426;2023-05-17T03:57:50;19;18;
50321;PMS5003;36227;53.366;-1.426;2023-05-17T04:00:15;20;17;
50321;PMS5003;36227;53.366;-1.426;2023-05-17T04:02:40;20;17;
50321;PMS5003;36227;53.366;-1.426;2023-05-17T04:05:06;19;19;
50321;PMS5003;36227;53.366;-1.426;2023-05-17T04:07:37;18;17;
50321;PMS5003;36227;53.366;-1.426;2023-05-17T04:09:57;16;16;
50321;PMS5003;36227;53.366;-1.426;2023-05-17T04:12:23;15;14;
50321;PMS5003;36227;53.366;-1.426;2023-05-17T04:14:48;19;17;
50321;PMS5003;36227;53.366;-1.426;2023-05-17T04:17:14;16;16;
50321;PMS5003;36227;53.366;-1.426;2023-05-17T04:19:39;19;19;
50321;PMS5003;36227;53.366;-1.426;2023-05-17T04:22:04;18;18;
50321;PMS5003;36227;53.366;-1.426;2023-05-17T04:24:30;19;18;
50321;PMS5003;36227;53.366;-1.426;2023-05-17T04:26:55;24;20;
50321;PMS5003;36227;53.366;-1.426;2023-05-17T04:29:21;17;16;
50321;PMS5003;36227;53.366;-1.426;2023-05-17T04:31:46;19;17;
50321;PMS5003;36227;53.366;-1.426;2023-05-17T04:34:12;12;12;
50321;PMS5003;36227;53.366;-1.426;2023-05-17T04:36:38;16;15;
50321;PMS5003;36227;53.366;-1.426;2023-05-17T04:39:02;15;15;
50321;PMS5003;36227;53.366;-1.426;2023-05-17T04:41:28;25;23;
50321;PMS5003;36227;53.366;-1.426;2023-05-17T04:43:53;21;19;
50321;PMS5003;36227;53.366;-1.426;2023-05-17T04:46:19;18;15;
50321;PMS5003;36227;53.366;-1.426;2023-05-17T04:48:44;18;17;
50321;PMS5003;36227;53.366;-1.426;2023-05-17T04:51:09;26;21;
50321;PMS5003;36227;53.366;-1.426;2023-05-17T04:53:34;22;20;
50321;PMS5003;36227;53.366;-1.426;2023-05-17T04:56:00;20;19;
50321;PMS5003;36227;53.366;-1.426;2023-05-17T04:58:25;22;18;
50321;PMS5003;36227;53.366;-1.426;2023-05-17T05:00:50;24;24;
50321;PMS5003;36227;53.366;-1.426;2023-05-17T05:03:15;26;21;
50321;PMS5003;36227;53.366;-1.426;2023-05-17T05:05:41;21;19;
50321;PMS5003;36227;53.366;-1.426;2023-05-17T05:08:07;20;19;
50321;PMS5003;36227;53.366;-1.426;2023-05-17T05:10:32;20;16;
50321;PMS5003;36227;53.366;-1.426;2023-05-17T05:12:58;19;19;
50321;PMS5003;36227;53.366;-1.426;2023-05-17T05:15:23;19;19;
50321;PMS5003;36227;53.366;-1.426;2023-05-17T05:17:49;18;17;
50321;PMS5003;36227;53.366;-1.426;2023-05-17T05:20:21;19;17;
50321;PMS5003;36227;53.366;-1.426;2023-05-17T05:22:40;16;16;
50321;PMS5003;36227;53.366;-1.426;2023-05-17T05:25:06;18;17;
50321;PMS5003;36227;53.366;-1.426;2023-05-17T05:27:30;20;18;
50321;PMS5003;36227;53.366;-1.426;2023-05-17T05:29:56;22;22;
50321;PMS5003;36227;53.366;-1.426;2023-05-17T05:32:21;16;16;
50321;PMS5003;36227;53.366;-1.426;2023-05-17T05:34:47;22;20;
50321;PMS5003;36227;53.366;-1.426;2023-05-17T05:37:12;17;14;
50321;PMS5003;36227;53.366;-1.426;2023-05-17T05:39:37;15;15;
50321;PMS5003;36227;53.366;-1.426;2023-05-17T05:42:02;18;16;
50321;PMS5003;36227;53.366;-1.426;2023-05-17T05:44:28;21;15;
50321;PMS5003;36227;53.366;-1.426;2023-05-17T05:46:53;14;14;
50321;PMS5003;36227;53.366;-1.426;2023-05-17T05:49:18;17;16;
50321;PMS5003;36227;53.366;-1.426;2023-05-17T05:51:43;15;13;
50321;PMS5003;36227;53.366;-1.426;2023-05-17T05:54:09;19;16;
50321;PMS5003;36227;53.366;-1.426;2023-05-17T05:56:35;15;12;
50321;PMS5003;36227;53.366;-1.426;2023-05-17T05:59:00;14;13;
50321;PMS5003;36227;53.366;-1.426;2023-05-17T06:01:25;14;14;
50321;PMS5003;36227;53.366;-1.426;2023-05-17T06:03:51;11;11;
50321;PMS5003;36227;53.366;-1.426;2023-05-17T06:06:17;14;14;
50321;PMS5003;36227;53.366;-1.426;2023-05-17T06:08:42;13;13;
50321;PMS5003;36227;53.366;-1.426;2023-05-17T06:11:08;16;15;
50321;PMS5003;36227;53.366;-1.426;2023-05-17T06:13:34;12;11;
50321;PMS5003;36227;53.366;-1.426;2023-05-17T06:15:59;14;13;
50321;PMS5003;36227;53.366;-1.426;2023-05-17T06:18:25;13;11;
50321;PMS5003;36227;53.366;-1.426;2023-05-17T06:20:50;11;10;
50321;PMS5003;36227;53.366;-1.426;2023-05-17T06:23:15;16;13;
50321;PMS5003;36227;53.366;-1.426;2023-05-17T06:25:41;16;13;
50321;PMS5003;36227;53.366;-1.426;2023-05-17T06:28:07;12;12;
50321;PMS5003;36227;53.366;-1.426;2023-05-17T06:30:33;15;14;
50321;PMS5003;36227;53.366;-1.426;2023-05-17T06:32:58;12;11;
50321;PMS5003;36227;53.366;-1.426;2023-05-17T06:35:24;14;12;
50321;PMS5003;36227;53.366;-1.426;2023-05-17T06:37:49;9;8;
50321;PMS5003;36227;53.366;-1.426;2023-05-17T06:40:15;13;12;
50321;PMS5003;36227;53.366;-1.426;2023-05-17T06:42:40;14;12;
50321;PMS5003;36227;53.366;-1.426;2023-05-17T06:45:06;10;10;
50321;PMS5003;36227;53.366;-1.426;2023-05-17T06:47:31;14;14;
50321;PMS5003;36227;53.366;-1.426;2023-05-17T06:49:56;13;12;
50321;PMS5003;36227;53.366;-1.426;2023-05-17T06:52:22;11;11;
50321;PMS5003;36227;53.366;-1.426;2023-05-17T06:54:47;12;11;
50321;PMS5003;36227;53.366;-1.426;2023-05-17T06:57:12;12;12;
50321;PMS5003;36227;53.366;-1.426;2023-05-17T06:59:38;14;11;
50321;PMS5003;36227;53.366;-1.426;2023-05-17T07:02:03;10;10;
50321;PMS5003;36227;53.366;-1.426;2023-05-17T07:04:29;13;12;
50321;PMS5003;36227;53.366;-1.426;2023-05-17T07:06:54;10;9;
50321;PMS5003;36227;53.366;-1.426;2023-05-17T07:09:19;11;11;
50321;PMS5003;36227;53.366;-1.426;2023-05-17T07:11:44;12;12;
50321;PMS5003;36227;53.366;-1.426;2023-05-17T07:14:10;13;11;
50321;PMS5003;36227;53.366;-1.426;2023-05-17T07:16:36;10;10;
50321;PMS5003;36227;53.366;-1.426;2023-05-17T07:19:01;13;11;
50321;PMS5003;36227;53.366;-1.426;2023-05-17T07:21:26;10;10;
50321;PMS5003;36227;53.366;-1.426;2023-05-17T07:23:51;14;12;
50321;PMS5003;36227;53.366;-1.426;2023-05-17T07:26:17;8;7;
50321;PMS5003;36227;53.366;-1.426;2023-05-17T07:28:42;15;13;
50321;PMS5003;36227;53.366;-1.426;2023-05-17T07:31:07;11;11;
50321;PMS5003;36227;53.366;-1.426;2023-05-17T07:33:33;11;9;
50321;PMS5003;36227;53.366;-1.426;2023-05-17T07:35:58;10;10;
50321;PMS5003;36227;53.366;-1.426;2023-05-17T07:38:24;9;9;
50321;PMS5003;36227;53.366;-1.426;2023-05-17T07:40:49;13;12;
50321;PMS5003;36227;53.366;-1.426;2023-05-17T07:43:15;13;12;
50321;PMS5003;36227;53.366;-1.426;2023-05-17T07:45:41;10;10;
50321;PMS5003;36227;53.366;-1.426;2023-05-17T07:48:06;14;13;
50321;PMS5003;36227;53.366;-1.426;2023-05-17T07:50:32;8;8;
50321;PMS5003;36227;53.366;-1.426;2023-05-17T07:52:57;10;7;
50321;PMS5003;36227;53.366;-1.426;2023-05-17T07:55:23;9;9;
50321;PMS5003;36227;53.366;-1.426;2023-05-17T07:57:48;10;10;
50321;PMS5003;36227;53.366;-1.426;2023-05-17T08:00:14;9;8;
50321;PMS5003;36227;53.366;-1.426;2023-05-17T08:02:39;15;12;
50321;PMS5003;36227;53.366;-1.426;2023-05-17T08:05:05;12;8;
50321;PMS5003;36227;53.366;-1.426;2023-05-17T08:07:30;7;7;
50321;PMS5003;36227;53.366;-1.426;2023-05-17T08:09:55;8;7;
50321;PMS5003;36227;53.366;-1.426;2023-05-17T08:12:20;11;11;
50321;PMS5003;36227;53.366;-1.426;2023-05-17T08:14:46;8;8;
50321;PMS5003;36227;53.366;-1.426;2023-05-17T08:17:11;6;6;
50321;PMS5003;36227;53.366;-1.426;2023-05-17T08:19:36;10;10;
50321;PMS5003;36227;53.366;-1.426;2023-05-17T08:22:01;8;8;
50321;PMS5003;36227;53.366;-1.426;2023-05-17T08:24:27;10;10;
50321;PMS5003;36227;53.366;-1.426;2023-05-17T08:26:52;13;11;
50321;PMS5003;36227;53.366;-1.426;2023-05-17T08:29:17;9;9;
50321;PMS5003;36227;53.366;-1.426;2023-05-17T08:31:43;10;10;
50321;PMS5003;36227;53.366;-1.426;2023-05-17T08:34:08;11;9;
50321;PMS5003;36227;53.366;-1.426;2023-05-17T08:36:33;9;8;
50321;PMS5003;36227;53.366;-1.426;2023-05-17T08:38:58;11;10;
50321;PMS5003;36227;53.366;-1.426;2023-05-17T08:41:24;11;11;
50321;PMS5003;36227;53.366;-1.426;2023-05-17T08:43:48;13;10;
50321;PMS5003;36227;53.366;-1.426;2023-05-17T08:46:14;8;8;
50321;PMS5003;36227;53.366;-1.426;2023-05-17T08:48:39;9;8;
50321;PMS5003;36227;53.366;-1.426;2023-05-17T08:51:04;9;8;
50321;PMS5003;36227;53.366;-1.426;2023-05-17T08:53:29;10;8;
50321;PMS5003;36227;53.366;-1.426;2023-05-17T08:55:56;8;8;
50321;PMS5003;36227;53.366;-1.426;2023-05-17T08:58:21;9;7;
50321;PMS5003;36227;53.366;-1.426;2023-05-17T09:00:45;7;6;
50321;PMS5003;36227;53.366;-1.426;2023-05-17T09:03:11;10;9;
50321;PMS5003;36227;53.366;-1.426;2023-05-17T09:05:36;9;8;
50321;PMS5003;36227;53.366;-1.426;2023-05-17T09:08:01;8;8;
50321;PMS5003;36227;53.366;-1.426;2023-05-17T09:10:26;7;7;
50321;PMS5003;36227;53.366;-1.426;2023-05-17T09:12:52;7;6;
50321;PMS5003;36227;53.366;-1.426;2023-05-17T09:15:17;7;7;
50321;PMS5003;36227;53.366;-1.426;2023-05-17T09:17:42;9;8;
50321;PMS5003;36227;53.366;-1.426;2023-05-17T09:20:07;7;7;
50321;PMS5003;36227;53.366;-1.426;2023-05-17T09:22:32;7;6;
50321;PMS5003;36227;53.366;-1.426;2023-05-17T09:24:57;4;4;
50321;PMS5003;36227;53.366;-1.426;2023-05-17T09:27:23;9;7;
50321;PMS5003;36227;53.366;-1.426;2023-05-17T09:29:47;7;6;
50321;PMS5003;36227;53.366;-1.426;2023-05-17T09:32:13;6;6;
50321;PMS5003;36227;53.366;-1.426;2023-05-17T09:34:38;8;7;
50321;PMS5003;36227;53.366;-1.426;2023-05-17T09:37:04;5;5;
50321;PMS5003;36227;53.366;-1.426;2023-05-17T09:39:29;6;6;
50321;PMS5003;36227;53.366;-1.426;2023-05-17T09:41:55;8;7;
50321;PMS5003;36227;53.366;-1.426;2023-05-17T09:44:19;8;8;
50321;PMS5003;36227;53.366;-1.426;2023-05-17T09:46:45;10;8;
50321;PMS5003;36227;53.366;-1.426;2023-05-17T09:49:10;6;6;
50321;PMS5003;36227;53.366;-1.426;2023-05-17T09:51:36;8;6;
50321;PMS5003;36227;53.366;-1.426;2023-05-17T09:54:00;12;10;
50321;PMS5003;36227;53.366;-1.426;2023-05-17T09:56:26;4;4;
50321;PMS5003;36227;53.366;-1.426;2023-05-17T09:58:50;7;7;
50321;PMS5003;36227;53.366;-1.426;2023-05-17T10:01:15;7;6;
50321;PMS5003;36227;53.366;-1.426;2023-05-17T10:03:41;6;6;
50321;PMS5003;36227;53.366;-1.426;2023-05-17T10:06:06;6;6;
50321;PMS5003;36227;53.366;-1.426;2023-05-17T10:08:31;7;6;
50321;PMS5003;36227;53.366;-1.426;2023-05-17T10:10:57;8;8;
50321;PMS5003;36227;53.366;-1.426;2023-05-17T10:13:23;6;5;
50321;PMS5003;36227;53.366;-1.426;2023-05-17T10:15:47;9;7;
50321;PMS5003;36227;53.366;-1.426;2023-05-17T10:18:13;9;7;
50321;PMS5003;36227;53.366;-1.426;2023-05-17T10:20:38;8;8;
50321;PMS5003;36227;53.366;-1.426;2023-05-17T10:23:03;7;7;
50321;PMS5003;36227;53.366;-1.426;2023-05-17T10:25:29;7;5;
50321;PMS5003;36227;53.366;-1.426;2023-05-17T10:27:54;6;5;
50321;PMS5003;36227;53.366;-1.426;2023-05-17T10:30:19;7;7;
50321;PMS5003;36227;53.366;-1.426;2023-05-17T10:32:44;8;7;
50321;PMS5003;36227;53.366;-1.426;2023-05-17T10:35:10;9;8;
50321;PMS5003;36227;53.366;-1.426;2023-05-17T10:37:35;6;6;
50321;PMS5003;36227;53.366;-1.426;2023-05-17T10:40:00;7;7;
50321;PMS5003;36227;53.366;-1.426;2023-05-17T10:42:25;10;9;
50321;PMS5003;36227;53.366;-1.426;2023-05-17T10:44:51;12;12;
50321;PMS5003;36227;53.366;-1.426;2023-05-17T10:47:16;12;8;
50321;PMS5003;36227;53.366;-1.426;2023-05-17T10:49:41;11;8;
50321;PMS5003;36227;53.366;-1.426;2023-05-17T10:52:11;8;7;
50321;PMS5003;36227;53.366;-1.426;2023-05-17T10:54:33;6;6;
50321;PMS5003;36227;53.366;-1.426;2023-05-17T10:56:57;6;6;
50321;PMS5003;36227;53.366;-1.426;2023-05-17T10:59:23;6;6;
50321;PMS5003;36227;53.366;-1.426;2023-05-17T11:01:51;8;8;
50321;PMS5003;36227;53.366;-1.426;2023-05-17T11:04:19;9;9;
50321;PMS5003;36227;53.366;-1.426;2023-05-17T11:06:38;11;9;
50321;PMS5003;36227;53.366;-1.426;2023-05-17T11:09:05;7;6;
50321;PMS5003;36227;53.366;-1.426;2023-05-17T11:11:28;7;7;
50321;PMS5003;36227;53.366;-1.426;2023-05-17T11:13:53;8;8;
50321;PMS5003;36227;53.366;-1.426;2023-05-17T11:16:20;9;9;
50321;PMS5003;36227;53.366;-1.426;2023-05-17T11:18:45;10;6;
50321;PMS5003;36227;53.366;-1.426;2023-05-17T11:21:09;8;8;
50321;PMS5003;36227;53.366;-1.426;2023-05-17T11:23:34;8;7;
50321;PMS5003;36227;53.366;-1.426;2023-05-17T11:28:25;9;8;
50321;PMS5003;36227;53.366;-1.426;2023-05-17T11:30:49;7;7;
50321;PMS5003;36227;53.366;-1.426;2023-05-17T11:33:15;6;6;
50321;PMS5003;36227;53.366;-1.426;2023-05-17T11:35:40;8;8;
50321;PMS5003;36227;53.366;-1.426;2023-05-17T11:38:11;9;8;
50321;PMS5003;36227;53.366;-1.426;2023-05-17T11:40:31;8;8;
50321;PMS5003;36227;53.366;-1.426;2023-05-17T11:45:21;8;8;
50321;PMS5003;36227;53.366;-1.426;2023-05-17T11:47:46;9;9;
50321;PMS5003;36227;53.366;-1.426;2023-05-17T11:50:11;11;11;
50321;PMS5003;36227;53.366;-1.426;2023-05-17T11:52:38;7;7;
50321;PMS5003;36227;53.366;-1.426;2023-05-17T11:55:02;10;9;
50321;PMS5003;36227;53.366;-1.426;2023-05-17T11:57:29;7;7;
50321;PMS5003;36227;53.366;-1.426;2023-05-17T11:59:57;11;9;
50321;PMS5003;36227;53.366;-1.426;2023-05-17T12:02:26;8;8;
50321;PMS5003;36227;53.366;-1.426;2023-05-17T12:04:43;7;7;
50321;PMS5003;36227;53.366;-1.426;2023-05-17T12:07:08;9;8;
50321;PMS5003;36227;53.366;-1.426;2023-05-17T12:09:34;9;7;
50321;PMS5003;36227;53.366;-1.426;2023-05-17T12:12:01;9;9;
50321;PMS5003;36227;53.366;-1.426;2023-05-17T12:14:25;8;7;
50321;PMS5003;36227;53.366;-1.426;2023-05-17T12:16:50;8;8;
50321;PMS5003;36227;53.366;-1.426;2023-05-17T12:19:16;6;6;
50321;PMS5003;36227;53.366;-1.426;2023-05-17T12:21:40;7;6;
50321;PMS5003;36227;53.366;-1.426;2023-05-17T12:24:05;8;8;
50321;PMS5003;36227;53.366;-1.426;2023-05-17T12:26:30;6;6;
50321;PMS5003;36227;53.366;-1.426;2023-05-17T12:28:56;7;7;
50321;PMS5003;36227;53.366;-1.426;2023-05-17T12:31:21;7;7;
50321;PMS5003;36227;53.366;-1.426;2023-05-17T12:33:45;9;9;
50321;PMS5003;36227;53.366;-1.426;2023-05-17T12:36:11;7;7;
50321;PMS5003;36227;53.366;-1.426;2023-05-17T12:38:37;11;10;
50321;PMS5003;36227;53.366;-1.426;2023-05-17T12:41:02;9;9;
50321;PMS5003;36227;53.366;-1.426;2023-05-17T12:43:27;7;7;
50321;PMS5003;36227;53.366;-1.426;2023-05-17T12:45:52;8;8;
50321;PMS5003;36227;53.366;-1.426;2023-05-17T12:48:17;10;10;
50321;PMS5003;36227;53.366;-1.426;2023-05-17T12:50:42;10;9;
50321;PMS5003;36227;53.366;-1.426;2023-05-17T12:53:07;7;7;
50321;PMS5003;36227;53.366;-1.426;2023-05-17T12:55:35;8;8;
50321;PMS5003;36227;53.366;-1.426;2023-05-17T12:57:57;9;7;
50321;PMS5003;36227;53.366;-1.426;2023-05-17T13:00:22;7;7;
50321;PMS5003;36227;53.366;-1.426;2023-05-17T13:02:47;8;8;
50321;PMS5003;36227;53.366;-1.426;2023-05-17T13:05:13;8;7;
50321;PMS5003;36227;53.366;-1.426;2023-05-17T13:07:38;9;9;
50321;PMS5003;36227;53.366;-1.426;2023-05-17T13:10:03;7;7;
50321;PMS5003;36227;53.366;-1.426;2023-05-17T13:12:28;11;9;
50321;PMS5003;36227;53.366;-1.426;2023-05-17T13:14:53;9;8;
50321;PMS5003;36227;53.366;-1.426;2023-05-17T13:17:23;8;8;
50321;PMS5003;36227;53.366;-1.426;2023-05-17T13:19:43;7;7;
50321;PMS5003;36227;53.366;-1.426;2023-05-17T13:22:08;9;9;
50321;PMS5003;36227;53.366;-1.426;2023-05-17T13:24:34;13;13;
50321;PMS5003;36227;53.366;-1.426;2023-05-17T13:26:59;8;8;
50321;PMS5003;36227;53.366;-1.426;2023-05-17T13:29:24;9;9;
50321;PMS5003;36227;53.366;-1.426;2023-05-17T13:31:50;11;9;
50321;PMS5003;36227;53.366;-1.426;2023-05-17T13:34:14;8;8;
50321;PMS5003;36227;53.366;-1.426;2023-05-17T13:36:40;13;11;
50321;PMS5003;36227;53.366;-1.426;2023-05-17T13:39:05;6;6;
50321;PMS5003;36227;53.366;-1.426;2023-05-17T13:41:30;9;8;
50321;PMS5003;36227;53.366;-1.426;2023-05-17T13:43:55;7;7;
50321;PMS5003;36227;53.366;-1.426;2023-05-17T13:46:20;8;8;
50321;PMS5003;36227;53.366;-1.426;2023-05-17T13:48:45;9;9;
50321;PMS5003;36227;53.366;-1.426;2023-05-17T13:51:11;8;8;
50321;PMS5003;36227;53.366;-1.426;2023-05-17T13:53:36;10;8;
50321;PMS5003;36227;53.366;-1.426;2023-05-17T13:56:02;9;9;
50321;PMS5003;36227;53.366;-1.426;2023-05-17T13:58:27;8;7;
50321;PMS5003;36227;53.366;-1.426;2023-05-17T14:00:52;9;8;
50321;PMS5003;36227;53.366;-1.426;2023-05-17T14:03:17;7;6;
50321;PMS5003;36227;53.366;-1.426;2023-05-17T14:05:42;8;8;
50321;PMS5003;36227;53.366;-1.426;2023-05-17T14:08:07;9;7;
50321;PMS5003;36227;53.366;-1.426;2023-05-17T14:10:32;10;8;
50321;PMS5003;36227;53.366;-1.426;2023-05-17T14:12:58;6;6;
50321;PMS5003;36227;53.366;-1.426;2023-05-17T14:15:24;9;6;
50321;PMS5003;36227;53.366;-1.426;2023-05-17T14:17:49;6;6;
50321;PMS5003;36227;53.366;-1.426;2023-05-17T14:20:14;9;8;
50321;PMS5003;36227;53.366;-1.426;2023-05-17T14:22:39;6;6;
50321;PMS5003;36227;53.366;-1.426;2023-05-17T14:25:05;8;8;
50321;PMS5003;36227;53.366;-1.426;2023-05-17T14:27:29;8;6;
50321;PMS5003;36227;53.366;-1.426;2023-05-17T14:29:54;6;6;
50321;PMS5003;36227;53.366;-1.426;2023-05-17T14:32:19;8;7;
50321;PMS5003;36227;53.366;-1.426;2023-05-17T14:34:45;9;8;
50321;PMS5003;36227;53.366;-1.426;2023-05-17T14:37:10;6;5;
50321;PMS5003;36227;53.366;-1.426;2023-05-17T14:39:35;8;7;
50321;PMS5003;36227;53.366;-1.426;2023-05-17T14:42:00;6;5;
50321;PMS5003;36227;53.366;-1.426;2023-05-17T14:44:25;9;9;
50321;PMS5003;36227;53.366;-1.426;2023-05-17T14:46:50;5;4;
50321;PMS5003;36227;53.366;-1.426;2023-05-17T14:49:15;8;8;
50321;PMS5003;36227;53.366;-1.426;2023-05-17T14:51:40;6;5;
50321;PMS5003;36227;53.366;-1.426;2023-05-17T14:54:05;6;6;
50321;PMS5003;36227;53.366;-1.426;2023-05-17T14:56:30;7;7;
50321;PMS5003;36227;53.366;-1.426;2023-05-17T14:58:56;6;5;
50321;PMS5003;36227;53.366;-1.426;2023-05-17T15:01:21;7;5;
50321;PMS5003;36227;53.366;-1.426;2023-05-17T15:03:46;4;4;
50321;PMS5003;36227;53.366;-1.426;2023-05-17T15:06:11;6;5;
50321;PMS5003;36227;53.366;-1.426;2023-05-17T15:08:36;6;6;
50321;PMS5003;36227;53.366;-1.426;2023-05-17T15:11:01;7;7;
50321;PMS5003;36227;53.366;-1.426;2023-05-17T15:13:26;7;7;
50321;PMS5003;36227;53.366;-1.426;2023-05-17T15:15:51;8;7;
50321;PMS5003;36227;53.366;-1.426;2023-05-17T15:18:17;7;5;
50321;PMS5003;36227;53.366;-1.426;2023-05-17T15:20:42;6;5;
50321;PMS5003;36227;53.366;-1.426;2023-05-17T15:23:08;5;5;
50321;PMS5003;36227;53.366;-1.426;2023-05-17T15:25:32;9;6;
50321;PMS5003;36227;53.366;-1.426;2023-05-17T15:27:57;7;6;
50321;PMS5003;36227;53.366;-1.426;2023-05-17T15:30:22;9;7;
50321;PMS5003;36227;53.366;-1.426;2023-05-17T15:32:48;6;5;
50321;PMS5003;36227;53.366;-1.426;2023-05-17T15:35:13;5;5;
50321;PMS5003;36227;53.366;-1.426;2023-05-17T15:37:38;8;5;
50321;PMS5003;36227;53.366;-1.426;2023-05-17T15:40:05;5;5;
50321;PMS5003;36227;53.366;-1.426;2023-05-17T15:42:28;6;6;
50321;PMS5003;36227;53.366;-1.426;2023-05-17T15:44:53;5;5;
50321;PMS5003;36227;53.366;-1.426;2023-05-17T15:47:18;6;5;
50321;PMS5003;36227;53.366;-1.426;2023-05-17T15:49:43;9;6;
50321;PMS5003;36227;53.366;-1.426;2023-05-17T15:52:08;5;5;
50321;PMS5003;36227;53.366;-1.426;2023-05-17T15:54:33;8;8;
50321;PMS5003;36227;53.366;-1.426;2023-05-17T15:56:58;5;5;
50321;PMS5003;36227;53.366;-1.426;2023-05-17T15:59:24;6;6;
50321;PMS5003;36227;53.366;-1.426;2023-05-17T16:01:49;4;4;
50321;PMS5003;36227;53.366;-1.426;2023-05-17T16:04:14;7;7;
50321;PMS5003;36227;53.366;-1.426;2023-05-17T16:06:39;6;6;
50321;PMS5003;36227;53.366;-1.426;2023-05-17T16:09:04;6;5;